sensor_id;sensor_type;location;lat;lon;timestamp;pressure;altitude;pressure_sealevel;temperature;humidity
4024;BME280;2026;51.002;13.668;2022-09-09T00:01:08;98716.50;;;14.00;68.79
4024;BME280;2026;51.002;13.668;2022-09-09T00:06:21;98722.28;;;13.91;68.99
4024;BME280;2026;51.002;13.668;2022-09-09T00:11:35;98731.31;;;13.96;68.62
4024;BME280;2026;51.002;13.668;2022-09-09T00:16:42;98725.34;;;14.16;67.34
4024;BME280;2026;51.002;13.668;2022-09-09T00:22:00;98713.38;;;14.03;68.33
4024;BME280;2026;51.002;13.668;2022-09-09T00:27:25;98717.75;;;13.82;69.32
4024;BME280;2026;51.002;13.668;2022-09-09T00:32:32;98716.16;;;13.86;68.84
4024;BME280;2026;51.002;13.668;2022-09-09T00:37:38;98703.72;;;13.81;69.06
4024;BME280;2026;51.002;13.668;2022-09-09T00:42:42;98711.06;;;13.74;69.49
4024;BME280;2026;51.002;13.668;2022-09-09T00:47:48;98706.97;;;13.61;71.05
4024;BME280;2026;51.002;13.668;2022-09-09T00:53:03;98715.34;;;13.47;70.97
4024;BME280;2026;51.002;13.668;2022-09-09T00:58:09;98718.91;;;13.63;69.45
4024;BME280;2026;51.002;13.668;2022-09-09T01:03:22;98723.22;;;13.75;68.67
4024;BME280;2026;51.002;13.668;2022-09-09T01:14:16;98722.63;;;13.67;69.31
4024;BME280;2026;51.002;13.668;2022-09-09T01:19:32;98724.97;;;13.64;69.26
4024;BME280;2026;51.002;13.668;2022-09-09T01:24:46;98721.00;;;13.61;68.73
4024;BME280;2026;51.002;13.668;2022-09-09T01:30:17;98726.75;;;13.86;67.51
4024;BME280;2026;51.002;13.668;2022-09-09T01:35:29;98722.38;;;13.69;68.28
4024;BME280;2026;51.002;13.668;2022-09-09T01:40:36;98706.75;;;13.62;69.27
4024;BME280;2026;51.002;13.668;2022-09-09T01:45:42;98708.88;;;13.65;68.70
4024;BME280;2026;51.002;13.668;2022-09-09T01:50:46;98705.56;;;13.48;69.68
4024;BME280;2026;51.002;13.668;2022-09-09T01:55:58;98698.31;;;13.33;70.87
4024;BME280;2026;51.002;13.668;2022-09-09T02:01:16;98697.94;;;13.19;71.67
4024;BME280;2026;51.002;13.668;2022-09-09T02:06:30;98689.19;;;13.18;70.93
4024;BME280;2026;51.002;13.668;2022-09-09T02:11:57;98704.31;;;13.23;71.28
4024;BME280;2026;51.002;13.668;2022-09-09T02:17:15;98700.97;;;13.05;72.06
4024;BME280;2026;51.002;13.668;2022-09-09T02:22:31;98705.56;;;12.88;73.33
4024;BME280;2026;51.002;13.668;2022-09-09T02:27:37;98710.63;;;12.94;72.68
4024;BME280;2026;51.002;13.668;2022-09-09T02:32:42;98714.59;;;12.69;74.32
4024;BME280;2026;51.002;13.668;2022-09-09T02:37:51;98711.31;;;12.40;75.76
4024;BME280;2026;51.002;13.668;2022-09-09T02:42:57;98711.88;;;12.42;75.32
4024;BME280;2026;51.002;13.668;2022-09-09T02:48:10;98701.31;;;12.42;75.84
4024;BME280;2026;51.002;13.668;2022-09-09T02:53:21;98713.59;;;12.76;73.25
4024;BME280;2026;51.002;13.668;2022-09-09T02:58:26;98707.53;;;13.03;71.33
4024;BME280;2026;51.002;13.668;2022-09-09T03:03:39;98712.56;;;13.04;71.24
4024;BME280;2026;51.002;13.668;2022-09-09T03:08:47;98714.00;;;13.17;70.59
4024;BME280;2026;51.002;13.668;2022-09-09T03:13:56;98716.16;;;13.20;70.64
4024;BME280;2026;51.002;13.668;2022-09-09T03:19:02;98716.47;;;13.24;70.02
4024;BME280;2026;51.002;13.668;2022-09-09T03:24:06;98718.69;;;13.37;69.79
4024;BME280;2026;51.002;13.668;2022-09-09T03:29:09;98708.63;;;13.34;69.78
4024;BME280;2026;51.002;13.668;2022-09-09T03:34:16;98712.09;;;13.40;69.69
4024;BME280;2026;51.002;13.668;2022-09-09T03:39:19;98708.09;;;13.32;69.78
4024;BME280;2026;51.002;13.668;2022-09-09T03:44:23;98704.09;;;13.30;70.20
4024;BME280;2026;51.002;13.668;2022-09-09T03:49:27;98712.47;;;13.21;70.18
4024;BME280;2026;51.002;13.668;2022-09-09T03:54:30;98714.66;;;13.30;70.10
4024;BME280;2026;51.002;13.668;2022-09-09T03:59:33;98707.41;;;13.15;70.73
4024;BME280;2026;51.002;13.668;2022-09-09T04:04:39;98706.81;;;13.07;71.00
4024;BME280;2026;51.002;13.668;2022-09-09T04:09:42;98707.94;;;13.17;70.87
4024;BME280;2026;51.002;13.668;2022-09-09T04:14:45;98708.28;;;13.25;69.71
4024;BME280;2026;51.002;13.668;2022-09-09T04:19:51;98723.34;;;13.25;70.16
4024;BME280;2026;51.002;13.668;2022-09-09T04:24:54;98726.13;;;12.85;72.76
4024;BME280;2026;51.002;13.668;2022-09-09T04:29:58;98722.38;;;12.81;72.77
4024;BME280;2026;51.002;13.668;2022-09-09T04:35:06;98720.47;;;12.77;73.79
4024;BME280;2026;51.002;13.668;2022-09-09T04:40:09;98726.72;;;12.70;75.05
4024;BME280;2026;51.002;13.668;2022-09-09T04:45:13;98723.13;;;12.77;75.48
4024;BME280;2026;51.002;13.668;2022-09-09T04:50:18;98720.44;;;12.71;75.32
4024;BME280;2026;51.002;13.668;2022-09-09T04:55:21;98725.75;;;12.99;71.54
4024;BME280;2026;51.002;13.668;2022-09-09T05:00:24;98719.34;;;13.22;70.12
4024;BME280;2026;51.002;13.668;2022-09-09T05:05:30;98731.00;;;13.54;68.17
4024;BME280;2026;51.002;13.668;2022-09-09T05:10:37;98725.25;;;13.62;69.66
4024;BME280;2026;51.002;13.668;2022-09-09T05:15:40;98726.84;;;13.68;71.10
4024;BME280;2026;51.002;13.668;2022-09-09T05:20:46;98734.25;;;13.66;71.46
4024;BME280;2026;51.002;13.668;2022-09-09T05:25:58;98727.38;;;13.65;69.79
4024;BME280;2026;51.002;13.668;2022-09-09T05:31:04;98739.72;;;13.87;69.47
4024;BME280;2026;51.002;13.668;2022-09-09T05:36:13;98749.53;;;14.45;68.57
4024;BME280;2026;51.002;13.668;2022-09-09T05:41:17;98744.16;;;14.83;66.56
4024;BME280;2026;51.002;13.668;2022-09-09T05:46:23;98752.09;;;14.88;66.05
4024;BME280;2026;51.002;13.668;2022-09-09T05:51:30;98762.41;;;14.85;66.01
4024;BME280;2026;51.002;13.668;2022-09-09T05:56:37;98759.75;;;14.80;65.54
4024;BME280;2026;51.002;13.668;2022-09-09T06:01:42;98767.16;;;14.83;65.60
4024;BME280;2026;51.002;13.668;2022-09-09T06:06:56;98762.78;;;15.14;65.00
4024;BME280;2026;51.002;13.668;2022-09-09T06:11:59;98763.09;;;15.44;64.09
4024;BME280;2026;51.002;13.668;2022-09-09T06:17:06;98762.56;;;15.78;62.96
4024;BME280;2026;51.002;13.668;2022-09-09T06:22:11;98768.38;;;15.85;62.80
4024;BME280;2026;51.002;13.668;2022-09-09T06:27:16;98762.03;;;15.55;65.02
4024;BME280;2026;51.002;13.668;2022-09-09T06:32:19;98765.47;;;15.66;64.66
4024;BME280;2026;51.002;13.668;2022-09-09T06:37:26;98761.75;;;15.72;64.96
4024;BME280;2026;51.002;13.668;2022-09-09T06:42:30;98773.16;;;15.99;63.65
4024;BME280;2026;51.002;13.668;2022-09-09T06:47:44;98761.59;;;16.61;62.14
4024;BME280;2026;51.002;13.668;2022-09-09T06:52:49;98763.22;;;16.57;62.56
4024;BME280;2026;51.002;13.668;2022-09-09T06:57:53;98760.09;;;17.00;60.49
4024;BME280;2026;51.002;13.668;2022-09-09T07:02:57;98756.41;;;18.05;59.74
4024;BME280;2026;51.002;13.668;2022-09-09T07:08:03;98752.81;;;19.07;55.66
4024;BME280;2026;51.002;13.668;2022-09-09T07:13:06;98749.25;;;18.00;60.12
4024;BME280;2026;51.002;13.668;2022-09-09T07:18:09;98757.47;;;18.77;56.70
4024;BME280;2026;51.002;13.668;2022-09-09T07:23:15;98753.75;;;18.29;56.11
4024;BME280;2026;51.002;13.668;2022-09-09T07:28:18;98752.53;;;19.61;55.14
4024;BME280;2026;51.002;13.668;2022-09-09T07:33:21;98753.63;;;20.21;53.90
4024;BME280;2026;51.002;13.668;2022-09-09T07:38:26;98753.53;;;20.41;51.93
4024;BME280;2026;51.002;13.668;2022-09-09T07:43:29;98758.38;;;20.10;53.39
4024;BME280;2026;51.002;13.668;2022-09-09T07:48:32;98758.94;;;19.27;55.13
4024;BME280;2026;51.002;13.668;2022-09-09T07:53:38;98765.78;;;19.33;55.62
4024;BME280;2026;51.002;13.668;2022-09-09T07:58:42;98780.50;;;19.97;57.03
4024;BME280;2026;51.002;13.668;2022-09-09T08:03:46;98780.84;;;19.76;56.05
4024;BME280;2026;51.002;13.668;2022-09-09T08:08:56;98788.06;;;19.57;56.26
4024;BME280;2026;51.002;13.668;2022-09-09T08:13:59;98790.50;;;18.76;58.24
4024;BME280;2026;51.002;13.668;2022-09-09T08:19:04;98782.72;;;19.04;56.66
4024;BME280;2026;51.002;13.668;2022-09-09T08:24:11;98788.31;;;19.22;56.68
4024;BME280;2026;51.002;13.668;2022-09-09T08:29:20;98790.22;;;19.40;55.10
4024;BME280;2026;51.002;13.668;2022-09-09T08:34:24;98789.03;;;19.47;55.03
4024;BME280;2026;51.002;13.668;2022-09-09T08:39:32;98792.47;;;20.00;53.54
4024;BME280;2026;51.002;13.668;2022-09-09T08:44:59;98793.97;;;20.06;53.93
4024;BME280;2026;51.002;13.668;2022-09-09T08:50:16;98797.94;;;20.22;55.42
4024;BME280;2026;51.002;13.668;2022-09-09T08:55:26;98806.03;;;20.03;55.90
4024;BME280;2026;51.002;13.668;2022-09-09T09:00:37;98801.97;;;19.73;53.76
4024;BME280;2026;51.002;13.668;2022-09-09T09:05:47;98805.88;;;19.61;54.22
4024;BME280;2026;51.002;13.668;2022-09-09T09:10:54;98811.75;;;18.81;56.07
4024;BME280;2026;51.002;13.668;2022-09-09T09:16:10;98819.69;;;18.62;58.89
4024;BME280;2026;51.002;13.668;2022-09-09T09:21:32;98836.41;;;18.14;58.59
4024;BME280;2026;51.002;13.668;2022-09-09T09:26:38;98824.53;;;18.60;59.35
4024;BME280;2026;51.002;13.668;2022-09-09T09:31:44;98815.69;;;18.11;59.83
4024;BME280;2026;51.002;13.668;2022-09-09T09:36:53;98817.59;;;19.27;60.02
4024;BME280;2026;51.002;13.668;2022-09-09T09:42:08;98819.78;;;20.24;55.78
4024;BME280;2026;51.002;13.668;2022-09-09T09:47:14;98813.69;;;20.38;54.81
4024;BME280;2026;51.002;13.668;2022-09-09T09:52:25;98808.44;;;20.61;53.76
4024;BME280;2026;51.002;13.668;2022-09-09T09:57:30;98817.03;;;20.30;54.84
4024;BME280;2026;51.002;13.668;2022-09-09T10:02:39;98801.91;;;20.39;56.21
4024;BME280;2026;51.002;13.668;2022-09-09T10:08:01;98811.13;;;21.63;54.01
4024;BME280;2026;51.002;13.668;2022-09-09T10:13:11;98798.44;;;21.31;57.29
4024;BME280;2026;51.002;13.668;2022-09-09T10:18:36;98793.78;;;20.58;59.01
4024;BME280;2026;51.002;13.668;2022-09-09T10:23:53;98786.66;;;20.96;57.72
4024;BME280;2026;51.002;13.668;2022-09-09T10:29:23;98786.41;;;21.66;55.07
4024;BME280;2026;51.002;13.668;2022-09-09T10:34:44;98779.75;;;21.54;54.51
4024;BME280;2026;51.002;13.668;2022-09-09T10:40:02;98779.13;;;22.21;53.20
4024;BME280;2026;51.002;13.668;2022-09-09T10:45:17;98759.97;;;22.36;50.37
4024;BME280;2026;51.002;13.668;2022-09-09T10:50:33;98750.59;;;22.83;50.01
4024;BME280;2026;51.002;13.668;2022-09-09T10:56:04;98741.75;;;22.56;51.38
4024;BME280;2026;51.002;13.668;2022-09-09T11:01:15;98737.97;;;22.57;49.10
4024;BME280;2026;51.002;13.668;2022-09-09T11:06:26;98748.53;;;21.50;50.54
4024;BME280;2026;51.002;13.668;2022-09-09T11:11:37;98751.13;;;21.18;51.19
4024;BME280;2026;51.002;13.668;2022-09-09T11:16:49;98762.44;;;21.15;52.75
4024;BME280;2026;51.002;13.668;2022-09-09T11:21:53;98761.72;;;21.46;53.96
4024;BME280;2026;51.002;13.668;2022-09-09T11:27:02;98750.66;;;21.39;52.26
4024;BME280;2026;51.002;13.668;2022-09-09T11:32:27;98743.91;;;21.41;50.65
4024;BME280;2026;51.002;13.668;2022-09-09T11:38:01;98744.34;;;21.12;56.08
4024;BME280;2026;51.002;13.668;2022-09-09T11:43:10;98738.44;;;21.24;52.72
4024;BME280;2026;51.002;13.668;2022-09-09T11:48:26;98738.09;;;21.02;59.54
4024;BME280;2026;51.002;13.668;2022-09-09T11:53:31;98751.91;;;21.18;57.67
4024;BME280;2026;51.002;13.668;2022-09-09T11:58:40;98726.53;;;22.25;53.36
4024;BME280;2026;51.002;13.668;2022-09-09T12:03:47;98728.22;;;22.79;54.60
4024;BME280;2026;51.002;13.668;2022-09-09T12:08:55;98723.13;;;22.51;55.28
4024;BME280;2026;51.002;13.668;2022-09-09T12:14:00;98714.19;;;22.06;54.63
4024;BME280;2026;51.002;13.668;2022-09-09T12:19:12;98707.84;;;22.34;54.75
4024;BME280;2026;51.002;13.668;2022-09-09T12:24:21;98715.69;;;21.90;56.60
4024;BME280;2026;51.002;13.668;2022-09-09T12:29:32;98715.00;;;21.75;55.63
4024;BME280;2026;51.002;13.668;2022-09-09T12:34:43;98719.88;;;21.50;58.48
4024;BME280;2026;51.002;13.668;2022-09-09T12:39:50;98709.44;;;21.40;59.04
4024;BME280;2026;51.002;13.668;2022-09-09T12:44:56;98703.22;;;21.85;56.78
4024;BME280;2026;51.002;13.668;2022-09-09T12:50:01;98695.88;;;22.49;54.64
4024;BME280;2026;51.002;13.668;2022-09-09T12:55:05;98697.31;;;22.06;52.11
4024;BME280;2026;51.002;13.668;2022-09-09T13:00:14;98686.44;;;22.69;46.15
4024;BME280;2026;51.002;13.668;2022-09-09T13:05:22;98679.78;;;22.49;46.17
4024;BME280;2026;51.002;13.668;2022-09-09T13:10:27;98678.38;;;23.31;44.94
4024;BME280;2026;51.002;13.668;2022-09-09T13:15:49;98663.38;;;23.77;44.24
4024;BME280;2026;51.002;13.668;2022-09-09T13:20:55;98658.09;;;22.01;44.53
4024;BME280;2026;51.002;13.668;2022-09-09T13:26:01;98664.50;;;22.58;43.53
4024;BME280;2026;51.002;13.668;2022-09-09T13:31:20;98671.28;;;22.64;44.20
4024;BME280;2026;51.002;13.668;2022-09-09T13:36:29;98652.81;;;22.89;44.58
4024;BME280;2026;51.002;13.668;2022-09-09T13:41:34;98662.31;;;22.78;44.75
4024;BME280;2026;51.002;13.668;2022-09-09T13:46:39;98669.53;;;22.51;44.29
4024;BME280;2026;51.002;13.668;2022-09-09T13:51:45;98683.44;;;22.53;45.97
4024;BME280;2026;51.002;13.668;2022-09-09T13:56:49;98672.91;;;22.07;45.68
4024;BME280;2026;51.002;13.668;2022-09-09T14:01:52;98674.06;;;21.43;45.73
4024;BME280;2026;51.002;13.668;2022-09-09T14:06:57;98673.34;;;21.05;47.20
4024;BME280;2026;51.002;13.668;2022-09-09T14:12:01;98673.88;;;21.71;49.43
4024;BME280;2026;51.002;13.668;2022-09-09T14:17:04;98667.25;;;22.18;48.43
4024;BME280;2026;51.002;13.668;2022-09-09T14:22:10;98661.13;;;22.17;46.65
4024;BME280;2026;51.002;13.668;2022-09-09T14:27:13;98648.09;;;22.51;47.52
4024;BME280;2026;51.002;13.668;2022-09-09T14:32:16;98659.94;;;22.50;47.29
4024;BME280;2026;51.002;13.668;2022-09-09T14:37:20;98655.22;;;22.64;46.67
4024;BME280;2026;51.002;13.668;2022-09-09T14:42:23;98646.53;;;22.67;46.92
4024;BME280;2026;51.002;13.668;2022-09-09T14:47:27;98644.03;;;22.62;46.76
4024;BME280;2026;51.002;13.668;2022-09-09T14:52:32;98642.59;;;22.47;47.95
4024;BME280;2026;51.002;13.668;2022-09-09T14:57:35;98645.53;;;21.70;51.45
4024;BME280;2026;51.002;13.668;2022-09-09T15:02:38;98657.94;;;21.57;52.19
4024;BME280;2026;51.002;13.668;2022-09-09T15:07:43;98655.91;;;21.63;50.35
4024;BME280;2026;51.002;13.668;2022-09-09T15:12:46;98642.09;;;21.78;52.19
4024;BME280;2026;51.002;13.668;2022-09-09T15:17:48;98641.00;;;21.79;48.76
4024;BME280;2026;51.002;13.668;2022-09-09T15:22:53;98644.22;;;21.99;52.66
4024;BME280;2026;51.002;13.668;2022-09-09T15:27:56;98642.91;;;21.87;45.72
4024;BME280;2026;51.002;13.668;2022-09-09T15:32:59;98654.31;;;22.02;48.32
4024;BME280;2026;51.002;13.668;2022-09-09T15:38:04;98653.41;;;22.15;50.58
4024;BME280;2026;51.002;13.668;2022-09-09T15:43:08;98658.09;;;22.01;53.51
4024;BME280;2026;51.002;13.668;2022-09-09T15:48:12;98648.69;;;21.63;48.16
4024;BME280;2026;51.002;13.668;2022-09-09T15:53:16;98635.47;;;21.67;49.57
4024;BME280;2026;51.002;13.668;2022-09-09T15:58:19;98646.19;;;21.44;50.27
4024;BME280;2026;51.002;13.668;2022-09-09T16:03:22;98645.91;;;21.23;52.81
4024;BME280;2026;51.002;13.668;2022-09-09T16:08:31;98657.13;;;21.33;53.51
4024;BME280;2026;51.002;13.668;2022-09-09T16:13:35;98650.22;;;21.32;55.42
4024;BME280;2026;51.002;13.668;2022-09-09T16:18:39;98654.06;;;21.17;55.51
4024;BME280;2026;51.002;13.668;2022-09-09T16:23:44;98651.88;;;20.97;53.78
4024;BME280;2026;51.002;13.668;2022-09-09T16:28:47;98654.44;;;20.79;53.10
4024;BME280;2026;51.002;13.668;2022-09-09T16:33:51;98662.50;;;20.88;54.82
4024;BME280;2026;51.002;13.668;2022-09-09T16:38:57;98660.44;;;20.48;53.12
4024;BME280;2026;51.002;13.668;2022-09-09T16:44:02;98667.50;;;20.81;55.75
4024;BME280;2026;51.002;13.668;2022-09-09T16:49:08;98670.03;;;20.86;57.68
4024;BME280;2026;51.002;13.668;2022-09-09T16:54:13;98676.13;;;21.00;56.45
4024;BME280;2026;51.002;13.668;2022-09-09T16:59:19;98688.34;;;20.92;57.92
4024;BME280;2026;51.002;13.668;2022-09-09T17:04:25;98691.50;;;20.58;59.23
4024;BME280;2026;51.002;13.668;2022-09-09T17:09:31;98684.59;;;20.29;54.67
4024;BME280;2026;51.002;13.668;2022-09-09T17:14:34;98698.34;;;20.08;53.96
4024;BME280;2026;51.002;13.668;2022-09-09T17:19:37;98688.66;;;19.84;50.79
4024;BME280;2026;51.002;13.668;2022-09-09T17:24:41;98692.94;;;19.52;54.28
4024;BME280;2026;51.002;13.668;2022-09-09T17:29:44;98695.31;;;19.20;53.40
4024;BME280;2026;51.002;13.668;2022-09-09T17:34:48;98703.50;;;19.24;54.47
4024;BME280;2026;51.002;13.668;2022-09-09T17:39:52;98710.50;;;18.81;54.82
4024;BME280;2026;51.002;13.668;2022-09-09T17:44:55;98707.19;;;18.70;51.47
4024;BME280;2026;51.002;13.668;2022-09-09T17:49:58;98704.91;;;18.39;50.48
4024;BME280;2026;51.002;13.668;2022-09-09T17:55:03;98731.22;;;18.46;49.98
4024;BME280;2026;51.002;13.668;2022-09-09T18:00:08;98727.03;;;18.15;50.85
4024;BME280;2026;51.002;13.668;2022-09-09T18:05:14;98733.25;;;18.05;51.20
4024;BME280;2026;51.002;13.668;2022-09-09T18:10:19;98748.44;;;18.05;51.31
4024;BME280;2026;51.002;13.668;2022-09-09T18:15:22;98747.84;;;18.08;52.88
4024;BME280;2026;51.002;13.668;2022-09-09T18:20:45;98758.53;;;17.73;54.25
4024;BME280;2026;51.002;13.668;2022-09-09T18:25:49;98741.59;;;17.94;51.53
4024;BME280;2026;51.002;13.668;2022-09-09T18:30:52;98742.78;;;17.82;52.66
4024;BME280;2026;51.002;13.668;2022-09-09T18:35:56;98758.91;;;17.61;53.75
4024;BME280;2026;51.002;13.668;2022-09-09T18:41:11;98752.47;;;17.68;54.06
4024;BME280;2026;51.002;13.668;2022-09-09T18:46:16;98759.22;;;17.55;55.68
4024;BME280;2026;51.002;13.668;2022-09-09T18:51:22;98765.28;;;17.26;56.93
4024;BME280;2026;51.002;13.668;2022-09-09T18:56:27;98766.84;;;17.27;56.71
4024;BME280;2026;51.002;13.668;2022-09-09T19:01:31;98777.72;;;17.30;56.08
4024;BME280;2026;51.002;13.668;2022-09-09T19:06:39;98766.94;;;17.16;57.40
4024;BME280;2026;51.002;13.668;2022-09-09T19:11:44;98763.81;;;16.99;56.96
4024;BME280;2026;51.002;13.668;2022-09-09T19:16:47;98769.16;;;16.93;57.89
4024;BME280;2026;51.002;13.668;2022-09-09T19:21:51;98768.09;;;16.89;59.11
4024;BME280;2026;51.002;13.668;2022-09-09T19:27:03;98774.16;;;17.00;59.14
4024;BME280;2026;51.002;13.668;2022-09-09T19:32:07;98780.28;;;16.95;59.67
4024;BME280;2026;51.002;13.668;2022-09-09T19:37:31;98778.50;;;16.86;59.75
4024;BME280;2026;51.002;13.668;2022-09-09T19:42:36;98789.91;;;16.86;59.48
4024;BME280;2026;51.002;13.668;2022-09-09T19:47:39;98783.81;;;16.86;59.97
4024;BME280;2026;51.002;13.668;2022-09-09T19:52:43;98781.19;;;16.75;60.31
4024;BME280;2026;51.002;13.668;2022-09-09T19:57:47;98787.31;;;16.71;61.34
4024;BME280;2026;51.002;13.668;2022-09-09T20:02:50;98780.22;;;16.45;61.53
4024;BME280;2026;51.002;13.668;2022-09-09T20:08:13;98786.34;;;16.51;62.35
4024;BME280;2026;51.002;13.668;2022-09-09T20:13:17;98790.06;;;16.39;62.96
4024;BME280;2026;51.002;13.668;2022-09-09T20:18:21;98792.19;;;16.43;63.40
4024;BME280;2026;51.002;13.668;2022-09-09T20:23:24;98790.13;;;16.19;64.47
4024;BME280;2026;51.002;13.668;2022-09-09T20:28:29;98800.22;;;16.17;64.02
4024;BME280;2026;51.002;13.668;2022-09-09T20:33:32;98802.06;;;16.32;64.49
4024;BME280;2026;51.002;13.668;2022-09-09T20:38:40;98812.66;;;16.32;63.51
4024;BME280;2026;51.002;13.668;2022-09-09T20:43:48;98810.81;;;16.22;63.81
4024;BME280;2026;51.002;13.668;2022-09-09T20:48:52;98810.81;;;16.22;64.48
4024;BME280;2026;51.002;13.668;2022-09-09T20:54:05;98814.00;;;16.19;64.69
4024;BME280;2026;51.002;13.668;2022-09-09T20:59:12;98824.63;;;16.13;65.05
4024;BME280;2026;51.002;13.668;2022-09-09T21:04:17;98818.25;;;16.09;65.35
4024;BME280;2026;51.002;13.668;2022-09-09T21:09:20;98827.53;;;15.96;64.54
4024;BME280;2026;51.002;13.668;2022-09-09T21:14:26;98816.13;;;15.85;61.47
4024;BME280;2026;51.002;13.668;2022-09-09T21:19:29;98824.09;;;15.96;61.38
4024;BME280;2026;51.002;13.668;2022-09-09T21:24:32;98828.34;;;16.02;62.65
4024;BME280;2026;51.002;13.668;2022-09-09T21:29:36;98821.47;;;16.11;64.01
4024;BME280;2026;51.002;13.668;2022-09-09T21:34:39;98829.41;;;16.01;64.53
4024;BME280;2026;51.002;13.668;2022-09-09T21:39:43;98834.97;;;15.94;65.35
4024;BME280;2026;51.002;13.668;2022-09-09T21:44:49;98833.63;;;15.86;65.49
4024;BME280;2026;51.002;13.668;2022-09-09T21:49:52;98818.78;;;15.75;65.69
4024;BME280;2026;51.002;13.668;2022-09-09T21:54:55;98809.47;;;15.67;65.80
4024;BME280;2026;51.002;13.668;2022-09-09T21:59:59;98822.47;;;15.53;65.28
4024;BME280;2026;51.002;13.668;2022-09-09T22:05:22;98813.19;;;15.45;65.27
4024;BME280;2026;51.002;13.668;2022-09-09T22:10:25;98812.66;;;15.38;65.13
4024;BME280;2026;51.002;13.668;2022-09-09T22:15:30;98816.06;;;15.28;66.03
4024;BME280;2026;51.002;13.668;2022-09-09T22:20:39;98812.31;;;15.14;66.63
4024;BME280;2026;51.002;13.668;2022-09-09T22:25:42;98805.91;;;14.94;66.51
4024;BME280;2026;51.002;13.668;2022-09-09T22:30:46;98805.91;;;14.94;66.21
4024;BME280;2026;51.002;13.668;2022-09-09T22:35:49;98802.72;;;14.92;65.81
4024;BME280;2026;51.002;13.668;2022-09-09T22:40:52;98797.38;;;14.87;64.71
4024;BME280;2026;51.002;13.668;2022-09-09T22:45:57;98793.69;;;14.88;65.59
4024;BME280;2026;51.002;13.668;2022-09-09T22:51:00;98773.50;;;14.76;64.85
4024;BME280;2026;51.002;13.668;2022-09-09T22:56:06;98785.16;;;14.75;65.98
4024;BME280;2026;51.002;13.668;2022-09-09T23:01:14;98783.53;;;14.69;66.40
4024;BME280;2026;51.002;13.668;2022-09-09T23:06:19;98782.97;;;14.57;66.39
4024;BME280;2026;51.002;13.668;2022-09-09T23:11:24;98771.75;;;14.39;66.91
4024;BME280;2026;51.002;13.668;2022-09-09T23:16:31;98771.72;;;14.34;65.77
4024;BME280;2026;51.002;13.668;2022-09-09T23:21:35;98773.97;;;14.58;63.73
4024;BME280;2026;51.002;13.668;2022-09-09T23:26:39;98777.16;;;14.65;63.25
4024;BME280;2026;51.002;13.668;2022-09-09T23:31:45;98772.41;;;14.67;62.51
4024;BME280;2026;51.002;13.668;2022-09-09T23:36:48;98766.06;;;14.63;62.89
4024;BME280;2026;51.002;13.668;2022-09-09T23:41:51;98776.06;;;14.56;63.28
4024;BME280;2026;51.002;13.668;2022-09-09T23:46:55;98778.69;;;14.51;63.46
4024;BME280;2026;51.002;13.668;2022-09-09T23:51:58;98780.56;;;14.55;63.39
4024;BME280;2026;51.002;13.668;2022-09-09T23:57:04;98785.34;;;14.63;63.10
